createdAt,value
2018-11-04T00:00:39.672Z,1024.61
2018-11-04T00:01:49.653Z,1024.64
2018-11-04T00:02:59.657Z,1024.64
2018-11-04T00:04:09.543Z,1024.58
2018-11-04T00:05:19.429Z,1024.55
2018-11-04T00:06:29.042Z,1024.56
2018-11-04T00:07:39.219Z,1024.56
2018-11-04T00:08:49.531Z,1024.52
2018-11-04T00:09:59.413Z,1024.48
2018-11-04T00:11:09.304Z,1024.4
2018-11-04T00:12:18.410Z,1024.43
2018-11-04T00:13:28.291Z,1024.35
2018-11-04T00:14:38.187Z,1024.39
2018-11-04T00:15:47.840Z,1024.35
2018-11-04T00:16:57.449Z,1024.33
2018-11-04T00:18:07.332Z,1024.33
2018-11-04T00:19:17.213Z,1024.28
2018-11-04T00:20:26.827Z,1024.21
2018-11-04T00:21:37.028Z,1024.26
2018-11-04T00:22:46.919Z,1024.25
2018-11-04T00:23:57.114Z,1024.24
2018-11-04T00:25:07.045Z,1024.25
2018-11-04T00:26:17.203Z,1024.26
2018-11-04T00:27:26.806Z,1024.22
2018-11-04T00:28:36.204Z,1024.16
2018-11-04T00:29:45.553Z,1024.17
2018-11-04T00:30:56.005Z,1024.21
2018-11-04T00:32:06.176Z,1024.18
2018-11-04T00:33:16.327Z,1024.16
2018-11-04T00:34:26.213Z,1024.19
2018-11-04T00:35:35.845Z,1024.14
2018-11-04T00:36:45.185Z,1024.16
2018-11-04T00:37:55.065Z,1024.11
2018-11-04T00:39:04.944Z,1024.14
2018-11-04T00:40:14.293Z,1024.09
2018-11-04T00:41:23.959Z,1024.06
2018-11-04T00:42:34.114Z,1024.06
2018-11-04T00:43:44.005Z,1024.02
2018-11-04T00:44:53.882Z,1024.03
2018-11-04T00:46:04.093Z,1023.97
2018-11-04T00:47:14.300Z,1024.03
2018-11-04T00:48:24.228Z,1023.96
2018-11-04T00:49:34.844Z,1023.95
2018-11-04T00:50:45.014Z,1023.94
2018-11-04T00:51:55.174Z,1023.88
2018-11-04T00:53:04.530Z,1023.85
2018-11-04T00:54:14.415Z,1023.87
2018-11-04T00:55:24.573Z,1023.84
2018-11-04T00:56:34.728Z,1023.82
2018-11-04T00:57:44.606Z,1023.79
2018-11-04T00:58:54.491Z,1023.8
2018-11-04T01:00:04.111Z,1023.79
2018-11-04T01:01:14.270Z,1023.77
2018-11-04T01:02:23.893Z,1023.74
2018-11-04T01:03:34.059Z,1023.76
2018-11-04T01:04:44.238Z,1023.77
2018-11-04T01:05:53.581Z,1023.7
2018-11-04T01:07:03.465Z,1023.67
2018-11-04T01:08:13.360Z,1023.67
2018-11-04T01:09:23.308Z,1023.66
2018-11-04T01:10:32.921Z,1023.65
2018-11-04T01:11:43.072Z,1023.63
2018-11-04T01:12:53.143Z,1023.62
2018-11-04T01:14:03.029Z,1023.61
2018-11-04T01:15:12.915Z,1023.55
2018-11-04T01:16:22.301Z,1023.51
2018-11-04T01:17:31.916Z,1023.48
2018-11-04T01:18:40.970Z,1023.47
2018-11-04T01:19:50.906Z,1023.46
2018-11-04T01:21:00.564Z,1023.43
2018-11-04T01:22:10.595Z,1023.43
2018-11-04T01:23:20.210Z,1023.42
2018-11-04T01:24:30.174Z,1023.36
2018-11-04T01:25:40.098Z,1023.39
2018-11-04T01:26:49.974Z,1023.37
2018-11-04T01:27:59.910Z,1023.36
2018-11-04T01:29:10.129Z,1023.36
2018-11-04T01:30:20.083Z,1023.33
2018-11-04T01:31:30.792Z,1023.33
2018-11-04T01:32:40.959Z,1023.29
2018-11-04T01:33:50.900Z,1023.25
2018-11-04T01:35:00.788Z,1023.21
2018-11-04T01:36:10.673Z,1023.16
2018-11-04T01:37:20.289Z,1023.21
2018-11-04T01:38:29.896Z,1023.14
2018-11-04T01:39:40.110Z,1023.13
2018-11-04T01:40:49.995Z,1023.12
2018-11-04T01:41:59.920Z,1023.08
2018-11-04T01:43:09.797Z,1023.1
2018-11-04T01:44:19.457Z,1023.06
2018-11-04T01:45:29.336Z,1023.01
2018-11-04T01:46:38.666Z,1023
2018-11-04T01:47:48.275Z,1023
2018-11-04T01:48:58.154Z,1023.05
2018-11-04T01:50:08.041Z,1023
2018-11-04T01:51:17.924Z,1023.01
2018-11-04T01:52:27.803Z,1022.93
2018-11-04T01:53:37.420Z,1022.93
2018-11-04T01:54:46.767Z,1022.92
2018-11-04T01:55:56.923Z,1022.92
2018-11-04T01:57:06.859Z,1022.92
2018-11-04T01:58:17.008Z,1022.89
2018-11-04T01:59:27.164Z,1022.86
2018-11-04T02:00:36.789Z,1022.83
2018-11-04T02:01:46.678Z,1022.77
2018-11-04T02:02:56.572Z,1022.77
2018-11-04T02:04:06.188Z,1022.76
2018-11-04T02:05:16.355Z,1022.72
2018-11-04T02:06:26.513Z,1022.69
2018-11-04T02:07:36.122Z,1022.72
2018-11-04T02:08:46.305Z,1022.71
2018-11-04T02:09:55.639Z,1022.71
2018-11-04T02:11:05.247Z,1022.7
2018-11-04T02:12:15.127Z,1022.62
2018-11-04T02:13:25.002Z,1022.63
2018-11-04T02:14:34.887Z,1022.63
2018-11-04T02:15:44.787Z,1022.59
2018-11-04T02:16:54.942Z,1022.57
2018-11-04T02:18:04.826Z,1022.59
2018-11-04T02:19:14.436Z,1022.6
2018-11-04T02:20:24.371Z,1022.6
2018-11-04T02:21:33.712Z,1022.55
2018-11-04T02:22:43.873Z,1022.51
2018-11-04T02:23:54.029Z,1022.51
2018-11-04T02:25:03.917Z,1022.48
2018-11-04T02:26:14.132Z,1022.46
2018-11-04T02:27:24.021Z,1022.51
2018-11-04T02:28:33.911Z,1022.52
2018-11-04T02:29:43.785Z,1022.5
2018-11-04T02:30:53.114Z,1022.5
2018-11-04T02:32:03.031Z,1022.48
2018-11-04T02:33:12.643Z,1022.51
2018-11-04T02:34:21.973Z,1022.49
2018-11-04T02:35:31.870Z,1022.49
2018-11-04T02:36:41.490Z,1022.48
2018-11-04T02:37:51.655Z,1022.46
2018-11-04T02:39:01.546Z,1022.46
2018-11-04T02:40:10.891Z,1022.45
2018-11-04T02:41:20.502Z,1022.42
2018-11-04T02:42:30.110Z,1022.39
2018-11-04T02:43:39.777Z,1022.37
2018-11-04T02:44:49.659Z,1022.38
2018-11-04T02:45:59.278Z,1022.4
2018-11-04T02:47:09.286Z,1022.38
2018-11-04T02:48:19.063Z,1022.32
2018-11-04T02:49:28.940Z,1022.35
2018-11-04T02:50:38.832Z,1022.32
2018-11-04T02:51:48.741Z,1022.3
2018-11-04T02:52:58.897Z,1022.31
2018-11-04T02:54:08.226Z,1022.26
2018-11-04T02:55:18.397Z,1022.3
2018-11-04T02:56:28.306Z,1022.28
2018-11-04T02:57:38.455Z,1022.31
2018-11-04T02:58:48.614Z,1022.23
2018-11-04T02:59:58.497Z,1022.29
2018-11-04T03:01:08.657Z,1022.27
2018-11-04T03:02:18.540Z,1022.21
2018-11-04T03:03:28.424Z,1022.19
2018-11-04T03:04:38.040Z,1022.17
2018-11-04T03:05:47.933Z,1022.12
2018-11-04T03:06:57.827Z,1022.15
2018-11-04T03:08:07.717Z,1022.13
2018-11-04T03:09:16.783Z,1022.07
2018-11-04T03:10:26.982Z,1022.04
2018-11-04T03:11:36.869Z,1022.08
2018-11-04T03:12:46.484Z,1022.09
2018-11-04T03:13:55.818Z,1021.97
2018-11-04T03:15:05.976Z,1022.04
2018-11-04T03:16:15.873Z,1021.94
2018-11-04T03:17:25.763Z,1021.97
2018-11-04T03:18:35.700Z,1021.96
2018-11-04T03:19:45.314Z,1021.9
2018-11-04T03:20:54.955Z,1021.92
2018-11-04T03:22:04.855Z,1021.94
2018-11-04T03:23:14.753Z,1021.87
2018-11-04T03:24:24.414Z,1021.88
2018-11-04T03:25:34.870Z,1021.85
2018-11-04T03:26:45.025Z,1021.79
2018-11-04T03:27:55.189Z,1021.82
2018-11-04T03:29:04.810Z,1021.8
2018-11-04T03:30:14.695Z,1021.78
2018-11-04T03:31:24.851Z,1021.77
2018-11-04T03:32:34.476Z,1021.74
2018-11-04T03:33:44.670Z,1021.71
2018-11-04T03:34:54.840Z,1021.65
2018-11-04T03:36:05.015Z,1021.65
2018-11-04T03:37:14.633Z,1021.62
2018-11-04T03:38:24.518Z,1021.64
2018-11-04T03:39:34.677Z,1021.66
2018-11-04T03:40:44.281Z,1021.63
2018-11-04T03:41:53.902Z,1021.61
2018-11-04T03:43:03.512Z,1021.6
2018-11-04T03:44:13.423Z,1021.65
2018-11-04T03:45:23.036Z,1021.69
2018-11-04T03:46:32.921Z,1021.66
2018-11-04T03:47:42.302Z,1021.7
2018-11-04T03:48:51.638Z,1021.66
2018-11-04T03:50:01.248Z,1021.68
2018-11-04T03:51:10.593Z,1021.7
2018-11-04T03:52:20.755Z,1021.69
2018-11-04T03:53:30.635Z,1021.67
2018-11-04T03:54:40.530Z,1021.68
2018-11-04T03:55:50.412Z,1021.64
2018-11-04T03:57:00.292Z,1021.68
2018-11-04T03:58:09.905Z,1021.66
2018-11-04T03:59:19.246Z,1021.62
2018-11-04T04:00:29.164Z,1021.59
2018-11-04T04:01:38.777Z,1021.62
2018-11-04T04:02:48.395Z,1021.59
2018-11-04T04:03:58.283Z,1021.57
2018-11-04T04:05:07.617Z,1021.56
2018-11-04T04:06:17.503Z,1021.55
2018-11-04T04:07:27.390Z,1021.52
2018-11-04T04:08:37.539Z,1021.55
2018-11-04T04:09:47.153Z,1021.52
2018-11-04T04:10:57.044Z,1021.48
2018-11-04T04:12:06.652Z,1021.49
2018-11-04T04:13:16.277Z,1021.5
2018-11-04T04:14:25.884Z,1021.49
2018-11-04T04:15:35.785Z,1021.5
2018-11-04T04:16:45.684Z,1021.51
2018-11-04T04:17:55.579Z,1021.52
2018-11-04T04:19:05.218Z,1021.5
2018-11-04T04:20:14.821Z,1021.52
2018-11-04T04:21:24.442Z,1021.46
2018-11-04T04:22:34.317Z,1021.47
2018-11-04T04:23:44.198Z,1021.44
2018-11-04T04:24:54.369Z,1021.46
2018-11-04T04:26:04.252Z,1021.48
2018-11-04T04:27:14.418Z,1021.4
2018-11-04T04:28:24.363Z,1021.38
2018-11-04T04:29:34.254Z,1021.37
2018-11-04T04:30:44.137Z,1021.33
2018-11-04T04:31:53.747Z,1021.31
2018-11-04T04:33:03.924Z,1021.33
2018-11-04T04:34:13.257Z,1021.33
2018-11-04T04:35:23.144Z,1021.28
2018-11-04T04:36:33.056Z,1021.33
2018-11-04T04:37:42.936Z,1021.34
2018-11-04T04:38:52.867Z,1021.3
2018-11-04T04:40:02.794Z,1021.26
2018-11-04T04:41:12.685Z,1021.22
2018-11-04T04:42:22.842Z,1021.22
2018-11-04T04:43:32.450Z,1021.21
2018-11-04T04:44:41.795Z,1021.22
2018-11-04T04:45:51.682Z,1021.16
2018-11-04T04:47:01.832Z,1021.15
2018-11-04T04:48:11.718Z,1021.14
2018-11-04T04:49:21.594Z,1021.17
2018-11-04T04:50:31.484Z,1021.17
2018-11-04T04:51:40.824Z,1021.17
2018-11-04T04:52:50.703Z,1021.15
2018-11-04T04:54:00.592Z,1021.16
2018-11-04T04:55:10.821Z,1021.14
2018-11-04T04:56:20.979Z,1021.14
2018-11-04T04:57:31.139Z,1021.15
2018-11-04T04:58:41.333Z,1021.13
2018-11-04T04:59:51.221Z,1021.14
2018-11-04T05:01:01.110Z,1021.09
2018-11-04T05:02:11.266Z,1021.1
2018-11-04T05:03:20.896Z,1021.09
2018-11-04T05:04:30.779Z,1021.11
2018-11-04T05:05:40.388Z,1021.14
2018-11-04T05:06:50.007Z,1021.12
2018-11-04T05:08:00.162Z,1021.16
2018-11-04T05:09:09.772Z,1021.14
2018-11-04T05:10:19.695Z,1021.17
2018-11-04T05:11:29.861Z,1021.12
2018-11-04T05:12:39.761Z,1021.12
2018-11-04T05:13:49.375Z,1021.05
2018-11-04T05:14:59.318Z,1021.08
2018-11-04T05:16:08.952Z,1021.04
2018-11-04T05:17:18.850Z,1021.06
2018-11-04T05:18:29.020Z,1021.04
2018-11-04T05:19:38.902Z,1021.02
2018-11-04T05:20:48.788Z,1021.03
2018-11-04T05:21:58.945Z,1021.04
2018-11-04T05:23:08.835Z,1021.05
2018-11-04T05:24:18.718Z,1021.09
2018-11-04T05:25:28.051Z,1021
2018-11-04T05:26:37.671Z,1020.98
2018-11-04T05:27:47.841Z,1021.02
2018-11-04T05:28:57.734Z,1021.03
2018-11-04T05:30:07.896Z,1021.04
2018-11-04T05:31:18.055Z,1021
2018-11-04T05:32:27.940Z,1021.01
2018-11-04T05:33:37.543Z,1021.01
2018-11-04T05:34:47.141Z,1020.99
2018-11-04T05:35:57.296Z,1020.94
2018-11-04T05:37:07.195Z,1020.95
2018-11-04T05:38:16.883Z,1020.94
2018-11-04T05:39:27.505Z,1020.91
2018-11-04T05:40:37.391Z,1020.96
2018-11-04T05:41:47.271Z,1020.96
2018-11-04T05:42:57.154Z,1020.99
2018-11-04T05:44:07.034Z,1020.99
2018-11-04T05:45:17.188Z,1021.01
2018-11-04T05:46:27.071Z,1021.03
2018-11-04T05:47:36.684Z,1021.03
2018-11-04T05:48:46.570Z,1021.09
2018-11-04T05:49:56.455Z,1021.06
2018-11-04T05:51:06.073Z,1021.07
2018-11-04T05:52:16.226Z,1021.08
2018-11-04T05:53:25.834Z,1021.09
2018-11-04T05:54:35.790Z,1021.05
2018-11-04T05:55:45.667Z,1021.02
2018-11-04T05:56:55.824Z,1021.01
2018-11-04T05:58:05.991Z,1021.03
2018-11-04T05:59:15.872Z,1020.98
2018-11-04T06:00:26.038Z,1021.02
2018-11-04T06:01:35.369Z,1021
2018-11-04T06:02:44.975Z,1021.01
2018-11-04T06:03:54.576Z,1020.99
2018-11-04T06:05:03.914Z,1021.02
2018-11-04T06:06:13.249Z,1020.99
2018-11-04T06:07:22.867Z,1021.03
2018-11-04T06:08:32.757Z,1021.01
2018-11-04T06:09:42.917Z,1021.01
2018-11-04T06:10:52.524Z,1020.97
2018-11-04T06:12:02.138Z,1021.05
2018-11-04T06:13:12.014Z,1021.03
2018-11-04T06:14:21.624Z,1021.05
2018-11-04T06:15:31.780Z,1021.04
2018-11-04T06:16:41.664Z,1021.09
2018-11-04T06:17:51.816Z,1021.07
2018-11-04T06:19:01.753Z,1021.02
2018-11-04T06:20:11.909Z,1021.01
2018-11-04T06:21:21.256Z,1021.02
2018-11-04T06:22:31.140Z,1021.02
2018-11-04T06:23:41.299Z,1021.04
2018-11-04T06:24:50.905Z,1021.06
2018-11-04T06:26:00.787Z,1021.09
2018-11-04T06:27:10.395Z,1021.05
2018-11-04T06:28:20.566Z,1021.1
2018-11-04T06:29:30.443Z,1021.06
2018-11-04T06:30:40.335Z,1021.11
2018-11-04T06:31:50.215Z,1021.06
2018-11-04T06:33:00.114Z,1021.09
2018-11-04T06:34:10.278Z,1021.04
2018-11-04T06:35:20.434Z,1021.04
2018-11-04T06:36:30.048Z,1021
2018-11-04T06:37:39.932Z,1021
2018-11-04T06:38:49.816Z,1020.99
2018-11-04T06:39:59.432Z,1021
2018-11-04T06:41:09.640Z,1020.99
2018-11-04T06:42:19.772Z,1021.05
2018-11-04T06:43:28.857Z,1021.01
2018-11-04T06:44:39.018Z,1021.01
2018-11-04T06:45:48.897Z,1020.99
2018-11-04T06:46:58.566Z,1020.97
2018-11-04T06:48:08.414Z,1021.01
2018-11-04T06:49:18.308Z,1020.98
2018-11-04T06:50:28.476Z,1020.95
2018-11-04T06:51:38.366Z,1020.99
2018-11-04T06:52:47.972Z,1020.98
2018-11-04T06:53:57.852Z,1020.99
2018-11-04T06:55:07.463Z,1020.96
2018-11-04T06:56:17.070Z,1020.96
2018-11-04T06:57:26.957Z,1020.96
2018-11-04T06:58:37.107Z,1020.98
2018-11-04T06:59:46.776Z,1021.02
2018-11-04T07:00:57.259Z,1021.02
2018-11-04T07:02:06.870Z,1021.03
2018-11-04T07:03:16.818Z,1021.01
2018-11-04T07:04:26.428Z,1020.94
2018-11-04T07:05:35.764Z,1020.99
2018-11-04T07:06:45.641Z,1020.97
2018-11-04T07:07:55.792Z,1020.92
2018-11-04T07:09:05.959Z,1020.91
2018-11-04T07:10:15.915Z,1020.94
2018-11-04T07:11:25.806Z,1020.94
2018-11-04T07:12:35.690Z,1020.89
2018-11-04T07:13:45.574Z,1020.89
2018-11-04T07:14:55.451Z,1020.84
2018-11-04T07:16:04.788Z,1020.85
2018-11-04T07:17:14.672Z,1020.83
2018-11-04T07:18:24.280Z,1020.81
2018-11-04T07:19:34.432Z,1020.8
2018-11-04T07:20:43.779Z,1020.79
2018-11-04T07:21:53.939Z,1020.82
2018-11-04T07:23:04.164Z,1020.77
2018-11-04T07:24:14.328Z,1020.79
2018-11-04T07:25:23.981Z,1020.77
2018-11-04T07:26:34.076Z,1020.74
2018-11-04T07:27:43.960Z,1020.75
2018-11-04T07:28:53.569Z,1020.75
2018-11-04T07:30:03.773Z,1020.75
2018-11-04T07:31:13.670Z,1020.79
2018-11-04T07:32:23.012Z,1020.81
2018-11-04T07:33:32.904Z,1020.82
2018-11-04T07:34:42.243Z,1020.85
2018-11-04T07:35:51.577Z,1020.84
2018-11-04T07:37:01.463Z,1020.87
2018-11-04T07:38:11.072Z,1020.9
2018-11-04T07:39:20.676Z,1020.89
2018-11-04T07:40:30.564Z,1020.89
2018-11-04T07:41:40.218Z,1020.89
2018-11-04T07:42:49.557Z,1020.97
2018-11-04T07:43:59.711Z,1020.96
2018-11-04T07:45:10.123Z,1020.95
2018-11-04T07:46:20.003Z,1020.99
2018-11-04T07:47:29.939Z,1020.96
2018-11-04T07:48:39.553Z,1020.95
2018-11-04T07:49:49.163Z,1020.96
2018-11-04T07:50:59.047Z,1020.88
2018-11-04T07:52:08.664Z,1020.87
2018-11-04T07:53:18.821Z,1020.89
2018-11-04T07:54:28.698Z,1020.9
2018-11-04T07:55:38.660Z,1020.88
2018-11-04T07:56:48.089Z,1020.82
2018-11-04T07:57:58.421Z,1020.79
2018-11-04T07:59:08.587Z,1020.8
2018-11-04T08:00:18.762Z,1020.78
2018-11-04T08:01:28.654Z,1020.78
2018-11-04T08:02:38.537Z,1020.78
2018-11-04T08:03:48.749Z,1020.82
2018-11-04T08:04:58.781Z,1020.75
2018-11-04T08:06:08.112Z,1020.74
2018-11-04T08:07:17.996Z,1020.69
2018-11-04T08:08:27.608Z,1020.69
2018-11-04T08:09:37.215Z,1020.64
2018-11-04T08:10:47.099Z,1020.7
2018-11-04T08:11:56.981Z,1020.64
2018-11-04T08:13:06.619Z,1020.6
2018-11-04T08:14:16.224Z,1020.58
2018-11-04T08:15:26.391Z,1020.62
2018-11-04T08:16:36.002Z,1020.62
2018-11-04T08:17:46.153Z,1020.61
2018-11-04T08:18:56.302Z,1020.63
2018-11-04T08:20:06.460Z,1020.64
2018-11-04T08:21:16.122Z,1020.67
2018-11-04T08:22:26.692Z,1020.64
2018-11-04T08:23:36.301Z,1020.57
2018-11-04T08:24:46.178Z,1020.62
2018-11-04T08:25:55.791Z,1020.61
2018-11-04T08:27:05.401Z,1020.53
2018-11-04T08:28:14.790Z,1020.56
2018-11-04T08:29:24.958Z,1020.5
2018-11-04T08:30:35.127Z,1020.45
2018-11-04T08:31:45.026Z,1020.44
2018-11-04T08:32:54.361Z,1020.45
2018-11-04T08:34:03.979Z,1020.44
2018-11-04T08:35:14.142Z,1020.4
2018-11-04T08:36:24.024Z,1020.38
2018-11-04T08:37:34.180Z,1020.33
2018-11-04T08:38:44.342Z,1020.34
2018-11-04T08:39:54.425Z,1020.34
2018-11-04T08:41:04.512Z,1020.37
2018-11-04T08:42:14.123Z,1020.39
2018-11-04T08:43:23.729Z,1020.42
2018-11-04T08:44:33.357Z,1020.4
2018-11-04T08:45:43.001Z,1020.34
2018-11-04T08:46:53.627Z,1020.35
2018-11-04T08:48:03.512Z,1020.35
2018-11-04T08:49:13.668Z,1020.37
2018-11-04T08:50:23.290Z,1020.38
2018-11-04T08:51:32.901Z,1020.4
2018-11-04T08:52:42.907Z,1020.26
2018-11-04T08:53:52.918Z,1020.27
2018-11-04T08:55:02.548Z,1020.31
2018-11-04T08:56:12.444Z,1020.29
2018-11-04T08:57:22.335Z,1020.22
2018-11-04T08:58:32.252Z,1020.23
2018-11-04T08:59:42.305Z,1020.29
2018-11-04T09:00:51.963Z,1020.23
2018-11-04T09:02:01.858Z,1020.2
2018-11-04T09:03:11.472Z,1020.19
2018-11-04T09:04:21.109Z,1020.16
2018-11-04T09:05:30.995Z,1020.2
2018-11-04T09:06:40.082Z,1020.2
2018-11-04T09:07:50.313Z,1020.2
2018-11-04T09:09:00.540Z,1020.15
2018-11-04T09:10:10.151Z,1020.11
2018-11-04T09:11:20.037Z,1020.11
2018-11-04T09:12:29.925Z,1020.11
2018-11-04T09:13:39.533Z,1020.13
2018-11-04T09:14:49.148Z,1020.09
2018-11-04T09:15:58.764Z,1020.1
2018-11-04T09:17:08.387Z,1020.09
2018-11-04T09:18:18.286Z,1020.05
2018-11-04T09:19:28.442Z,1020.1
2018-11-04T09:20:38.323Z,1020.04
2018-11-04T09:21:48.140Z,1020.07
2018-11-04T09:22:57.894Z,1020.06
2018-11-04T09:24:07.515Z,1020.06
2018-11-04T09:25:17.681Z,1020.01
2018-11-04T09:26:27.898Z,1019.99
2018-11-04T09:27:37.509Z,1020.02
2018-11-04T09:28:47.135Z,1019.99
2018-11-04T09:29:57.053Z,1019.98
2018-11-04T09:31:06.399Z,1019.94
2018-11-04T09:32:15.753Z,1019.84
2018-11-04T09:33:25.113Z,1019.88
2018-11-04T09:34:34.736Z,1019.86
2018-11-04T09:35:44.930Z,1019.84
2018-11-04T09:36:55.499Z,1019.85
2018-11-04T09:38:04.847Z,1019.83
2018-11-04T09:39:14.755Z,1019.77
2018-11-04T09:40:24.932Z,1019.79
2018-11-04T09:41:34.277Z,1019.84
2018-11-04T09:42:43.627Z,1019.88
2018-11-04T09:43:52.984Z,1019.86
2018-11-04T09:45:02.331Z,1019.82
2018-11-04T09:46:12.246Z,1019.84
2018-11-04T09:47:21.598Z,1019.83
2018-11-04T09:48:30.729Z,1019.83
2018-11-04T09:49:40.351Z,1019.88
2018-11-04T09:50:50.050Z,1019.83
2018-11-04T09:51:59.673Z,1019.84
2018-11-04T09:53:08.747Z,1019.84
2018-11-04T09:54:18.365Z,1019.86
2018-11-04T09:55:27.703Z,1019.85
2018-11-04T09:56:37.724Z,1019.81
2018-11-04T09:57:47.316Z,1019.89
2018-11-04T09:58:57.224Z,1019.88
2018-11-04T10:00:07.117Z,1019.84
2018-11-04T10:01:17.281Z,1019.84
2018-11-04T10:02:26.905Z,1019.87
2018-11-04T10:03:36.795Z,1019.82
2018-11-04T10:04:46.151Z,1019.72
2018-11-04T10:05:55.778Z,1019.72
2018-11-04T10:07:05.432Z,1019.78
2018-11-04T10:08:14.958Z,1019.78
2018-11-04T10:09:24.877Z,1019.76
2018-11-04T10:10:33.951Z,1019.77
2018-11-04T10:11:43.569Z,1019.77
2018-11-04T10:12:53.517Z,1019.7
2018-11-04T10:14:03.130Z,1019.73
2018-11-04T10:15:13.297Z,1019.71
2018-11-04T10:16:23.343Z,1019.69
2018-11-04T10:17:33.396Z,1019.7
2018-11-04T10:18:43.632Z,1019.69
2018-11-04T10:19:54.558Z,1019.68
2018-11-04T10:21:07.937Z,1019.67
2018-11-04T10:22:19.393Z,1019.61
2018-11-04T10:23:29.283Z,1019.66
2018-11-04T10:24:38.894Z,1019.62
2018-11-04T10:25:48.238Z,1019.56
2018-11-04T10:26:58.133Z,1019.52
2018-11-04T10:28:08.135Z,1019.54
2018-11-04T10:29:17.754Z,1019.55
2018-11-04T10:30:27.778Z,1019.49
2018-11-04T10:31:38.045Z,1019.54
2018-11-04T10:32:47.659Z,1019.55
2018-11-04T10:33:57.827Z,1019.5
2018-11-04T10:35:07.720Z,1019.5
2018-11-04T10:36:17.980Z,1019.48
2018-11-04T10:37:28.451Z,1019.46
2018-11-04T10:38:38.218Z,1019.49
2018-11-04T10:39:48.371Z,1019.46
2018-11-04T10:40:57.986Z,1019.44
2018-11-04T10:42:07.625Z,1019.48
2018-11-04T10:43:18.123Z,1019.49
2018-11-04T10:44:28.026Z,1019.49
2018-11-04T10:45:37.961Z,1019.49
2018-11-04T10:46:47.575Z,1019.46
2018-11-04T10:47:57.193Z,1019.44
2018-11-04T10:49:06.841Z,1019.39
2018-11-04T10:50:15.920Z,1019.33
2018-11-04T10:51:26.088Z,1019.3
2018-11-04T10:52:35.975Z,1019.31
2018-11-04T10:53:45.880Z,1019.3
2018-11-04T10:54:56.041Z,1019.33
2018-11-04T10:56:05.923Z,1019.3
2018-11-04T10:57:15.281Z,1019.36
2018-11-04T10:58:24.900Z,1019.28
2018-11-04T10:59:35.067Z,1019.28
2018-11-04T11:00:44.973Z,1019.28
2018-11-04T11:01:55.144Z,1019.27
2018-11-04T11:03:04.483Z,1019.23
2018-11-04T11:04:14.386Z,1019.21
2018-11-04T11:05:24.054Z,1019.25
2018-11-04T11:06:33.942Z,1019.27
2018-11-04T11:07:43.832Z,1019.22
2018-11-04T11:08:53.180Z,1019.24
2018-11-04T11:10:02.808Z,1019.21
2018-11-04T11:11:12.495Z,1019.22
2018-11-04T11:12:21.845Z,1019.22
2018-11-04T11:13:31.465Z,1019.18
2018-11-04T11:14:41.353Z,1019.17
2018-11-04T11:15:51.277Z,1019.18
2018-11-04T11:17:00.888Z,1019.13
2018-11-04T11:18:11.056Z,1019.13
2018-11-04T11:19:20.676Z,1019.13
2018-11-04T11:20:30.842Z,1019.11
2018-11-04T11:21:41.023Z,1019.15
2018-11-04T11:22:51.359Z,1019.15
2018-11-04T11:24:02.934Z,1019.13
2018-11-04T11:25:12.558Z,1019.13
2018-11-04T11:26:22.748Z,1019.07
2018-11-04T11:27:32.639Z,1019.09
2018-11-04T11:28:42.311Z,1019.08
2018-11-04T11:29:52.219Z,1019.06
2018-11-04T11:31:02.297Z,1019.03
2018-11-04T11:32:11.915Z,1019.04
2018-11-04T11:33:22.079Z,1019.05
2018-11-04T11:34:31.706Z,1019.07
2018-11-04T11:35:41.071Z,1019.04
2018-11-04T11:36:51.006Z,1019
2018-11-04T11:38:00.771Z,1018.93
2018-11-04T11:39:11.036Z,1018.9
2018-11-04T11:40:20.662Z,1018.89
2018-11-04T11:41:30.283Z,1018.9
2018-11-04T11:42:40.453Z,1018.86
2018-11-04T11:43:50.344Z,1018.86
2018-11-04T11:45:00.691Z,1018.82
2018-11-04T11:46:10.437Z,1018.8
2018-11-04T11:47:20.353Z,1018.77
2018-11-04T11:48:30.256Z,1018.76
2018-11-04T11:49:40.175Z,1018.79
2018-11-04T11:50:50.338Z,1018.74
2018-11-04T11:52:00.240Z,1018.74
2018-11-04T11:53:09.581Z,1018.71
2018-11-04T11:54:19.194Z,1018.69
2018-11-04T11:55:29.077Z,1018.69
2018-11-04T11:56:38.698Z,1018.7
2018-11-04T11:57:48.873Z,1018.66
2018-11-04T11:58:58.769Z,1018.63
2018-11-04T12:00:08.235Z,1018.61
2018-11-04T12:01:17.861Z,1018.62
2018-11-04T12:02:26.939Z,1018.63
2018-11-04T12:03:36.835Z,1018.6
2018-11-04T12:04:46.449Z,1018.56
2018-11-04T12:05:56.640Z,1018.59
2018-11-04T12:07:06.616Z,1018.56
2018-11-04T12:08:16.305Z,1018.51
2018-11-04T12:09:26.199Z,1018.49
2018-11-04T12:10:35.820Z,1018.48
2018-11-04T12:11:45.986Z,1018.47
2018-11-04T12:12:55.606Z,1018.47
2018-11-04T12:14:05.498Z,1018.45
2018-11-04T12:15:15.107Z,1018.44
2018-11-04T12:16:24.724Z,1018.39
2018-11-04T12:17:34.345Z,1018.43
2018-11-04T12:18:44.542Z,1018.37
2018-11-04T12:19:54.436Z,1018.37
2018-11-04T12:21:03.787Z,1018.36
2018-11-04T12:22:13.954Z,1018.37
2018-11-04T12:23:23.836Z,1018.33
2018-11-04T12:24:34.169Z,1018.37
2018-11-04T12:25:44.352Z,1018.32
2018-11-04T12:26:54.518Z,1018.33
2018-11-04T12:28:03.849Z,1018.32
2018-11-04T12:29:13.743Z,1018.3
2018-11-04T12:30:23.365Z,1018.33
2018-11-04T12:31:33.260Z,1018.3
2018-11-04T12:32:43.146Z,1018.25
2018-11-04T12:33:53.036Z,1018.22
2018-11-04T12:35:02.705Z,1018.17
2018-11-04T12:36:12.177Z,1018.11
2018-11-04T12:37:21.795Z,1018.15
2018-11-04T12:38:31.693Z,1018.12
2018-11-04T12:39:41.598Z,1018.08
2018-11-04T12:40:51.496Z,1018.1
2018-11-04T12:42:01.667Z,1018.09
2018-11-04T12:43:11.829Z,1018.09
2018-11-04T12:44:21.174Z,1018.08
2018-11-04T12:45:30.866Z,1018.09
2018-11-04T12:46:41.026Z,1018.05
2018-11-04T12:47:50.916Z,1018.09
2018-11-04T12:49:01.084Z,1018.07
2018-11-04T12:50:10.991Z,1018.07
2018-11-04T12:51:20.883Z,1018.09
2018-11-04T12:52:30.232Z,1018.04
2018-11-04T12:53:39.852Z,1018.05
2018-11-04T12:54:49.201Z,1018.01
2018-11-04T12:55:58.871Z,1018.07
2018-11-04T12:57:09.043Z,1018.05
2018-11-04T12:58:18.940Z,1018.07
2018-11-04T12:59:28.564Z,1018.05
2018-11-04T13:00:38.196Z,1018.08
2018-11-04T13:01:48.427Z,1018.08
2018-11-04T13:02:58.584Z,1018.1
2018-11-04T13:04:08.479Z,1018.11
2018-11-04T13:05:18.391Z,1018.05
2018-11-04T13:06:28.562Z,1018.05
2018-11-04T13:07:38.730Z,1018.06
2018-11-04T13:08:48.638Z,1017.94
2018-11-04T13:09:58.573Z,1017.95
2018-11-04T13:11:08.771Z,1017.97
2018-11-04T13:12:18.176Z,1017.88
2018-11-04T13:13:28.068Z,1017.89
2018-11-04T13:14:37.965Z,1017.86
2018-11-04T13:15:47.853Z,1017.85
2018-11-04T13:16:57.471Z,1017.89
2018-11-04T13:18:07.360Z,1017.81
2018-11-04T13:19:17.521Z,1017.74
2018-11-04T13:20:27.154Z,1017.73
2018-11-04T13:21:37.048Z,1017.72
2018-11-04T13:22:46.668Z,1017.74
2018-11-04T13:23:56.569Z,1017.71
2018-11-04T13:25:05.919Z,1017.71
2018-11-04T13:26:15.810Z,1017.71
2018-11-04T13:27:25.716Z,1017.71
2018-11-04T13:28:35.618Z,1017.71
2018-11-04T13:29:45.260Z,1017.72
2018-11-04T13:30:54.874Z,1017.69
2018-11-04T13:32:04.253Z,1017.67
2018-11-04T13:33:14.423Z,1017.72
2018-11-04T13:34:24.037Z,1017.69
2018-11-04T13:35:33.931Z,1017.72
2018-11-04T13:36:44.095Z,1017.73
2018-11-04T13:37:53.999Z,1017.72
2018-11-04T13:39:03.351Z,1017.68
2018-11-04T13:40:12.691Z,1017.74
2018-11-04T13:41:22.311Z,1017.67
2018-11-04T13:42:31.935Z,1017.66
2018-11-04T13:43:41.832Z,1017.65
2018-11-04T13:44:51.737Z,1017.65
2018-11-04T13:46:01.362Z,1017.67
2018-11-04T13:47:11.535Z,1017.67
2018-11-04T13:48:21.427Z,1017.68
2018-11-04T13:49:31.375Z,1017.64
2018-11-04T13:50:41.270Z,1017.68
2018-11-04T13:51:51.443Z,1017.69
2018-11-04T13:53:01.618Z,1017.67
2018-11-04T13:54:10.697Z,1017.66
2018-11-04T13:55:20.313Z,1017.61
2018-11-04T13:56:29.661Z,1017.62
2018-11-04T13:57:38.721Z,1017.58
2018-11-04T13:58:48.891Z,1017.64
2018-11-04T13:59:58.778Z,1017.6
2018-11-04T14:01:08.668Z,1017.57
2018-11-04T14:02:18.565Z,1017.55
2018-11-04T14:03:28.457Z,1017.58
2018-11-04T14:04:38.344Z,1017.57
2018-11-04T14:05:47.966Z,1017.58
2018-11-04T14:06:57.580Z,1017.57
2018-11-04T14:08:07.209Z,1017.51